Time;durP1;ratioP1;P1;durP2;ratioP2;P2;SDS_P1;SDS_P2;PMS_P1;PMS_P2;Temp;Humidity;BMP_temperature;BMP_pressure;BME280_temperature;BME280_humidity;BME280_pressure;Samples;Min_cycle;Max_cycle;Signal;HPM_P1;HPM_P2
2023/11/22 00:00:00;;;;;;;22.42;11.68;;;;;;;7.78;65.78;102677.47;6093580;23;114862;-77
2023/11/22 00:02:28;;;;;;;20.40;10.43;;;;;;;7.78;65.74;102680.09;6094240;23;114706;-77
2023/11/22 00:04:58;;;;;;;20.85;10.70;;;;;;;7.77;65.83;102669.56;6093827;23;124006;-77
2023/11/22 00:07:28;;;;;;;19.50;10.70;;;;;;;7.76;66.23;102657.22;6094234;23;123834;-77
2023/11/22 00:09:57;;;;;;;21.92;10.52;;;;;;;7.77;66.12;102659.00;6092617;23;114111;-77
2023/11/22 00:12:25;;;;;;;19.17;10.00;;;;;;;7.75;65.83;102658.13;6091945;23;114166;-77
2023/11/22 00:14:54;;;;;;;19.98;10.90;;;;;;;7.73;65.83;102646.72;6093259;23;124726;-77
2023/11/22 00:17:21;;;;;;;21.00;10.02;;;;;;;7.72;66.15;102650.22;6094956;23;124529;-77
2023/11/22 00:19:51;;;;;;;19.15;10.77;;;;;;;7.71;65.91;102652.00;6093724;23;114566;-77
2023/11/22 00:22:19;;;;;;;20.35;10.52;;;;;;;7.71;65.67;102653.75;6090489;23;113958;-77
2023/11/22 00:24:50;;;;;;;18.00;10.35;;;;;;;7.69;66.08;102660.81;6091811;23;124097;-77
2023/11/22 00:27:17;;;;;;;21.08;10.60;;;;;;;7.67;66.04;102666.06;6093163;23;124199;-77
2023/11/22 00:29:52;;;;;;;18.90;10.85;;;;;;;7.67;65.87;102663.44;6092886;23;114535;-77
2023/11/22 00:32:19;;;;;;;20.38;10.52;;;;;;;7.67;65.87;102673.13;6093459;23;114444;-77
2023/11/22 00:34:47;;;;;;;21.08;10.88;;;;;;;7.64;65.74;102673.13;6092972;23;123814;-77
2023/11/22 00:37:15;;;;;;;22.15;11.13;;;;;;;7.64;65.72;102678.41;6094164;23;124073;-77
2023/11/22 00:39:43;;;;;;;20.35;10.13;;;;;;;7.62;65.69;102680.16;6092304;23;113983;-76
2023/11/22 00:42:11;;;;;;;20.63;9.75;;;;;;;7.59;65.51;102681.94;6091988;23;114533;-76
2023/11/22 00:44:39;;;;;;;18.25;9.77;;;;;;;7.57;65.55;102690.72;6093266;23;124031;-75
2023/11/22 00:47:07;;;;;;;20.40;10.45;;;;;;;7.52;65.71;102693.38;6093555;23;124408;-75
2023/11/22 00:49:35;;;;;;;19.80;9.45;;;;;;;7.48;65.51;102681.09;6091863;23;114827;-75
2023/11/22 00:52:02;;;;;;;18.73;9.73;;;;;;;7.45;65.56;102683.72;6091707;23;114067;-75
2023/11/22 00:54:32;;;;;;;17.95;9.45;;;;;;;7.40;65.73;102688.09;6089632;23;123150;-75
2023/11/22 00:57:00;;;;;;;19.05;9.77;;;;;;;7.37;65.38;102688.13;6093766;23;125038;-75
2023/11/22 00:59:27;;;;;;;20.45;10.38;;;;;;;7.33;65.76;102694.28;6094393;23;114261;-77
2023/11/22 01:01:55;;;;;;;18.15;10.43;;;;;;;7.30;65.41;102689.03;6094288;23;114431;-76
2023/11/22 01:04:23;;;;;;;19.25;9.82;;;;;;;7.27;65.67;102699.56;6094602;23;124429;-76
2023/11/22 01:06:54;;;;;;;20.08;10.23;;;;;;;7.24;65.88;102702.22;6093213;23;124151;-77
2023/11/22 01:09:21;;;;;;;19.67;10.13;;;;;;;7.22;65.76;102708.34;6095876;23;114416;-76
2023/11/22 01:11:51;;;;;;;21.80;10.75;;;;;;;7.20;65.57;102710.13;6095391;23;114226;-77
2023/11/22 01:14:18;;;;;;;18.23;9.93;;;;;;;7.19;65.75;102713.63;6094647;23;123919;-77
2023/11/22 01:16:48;;;;;;;20.98;10.52;;;;;;;7.18;65.92;102722.41;6095180;23;124395;-77
2023/11/22 01:19:16;;;;;;;18.60;10.60;;;;;;;7.19;65.90;102729.41;6094529;23;114050;-77
2023/11/22 01:21:43;;;;;;;19.25;9.98;;;;;;;7.19;66.10;102729.41;6095159;23;114280;-77
2023/11/22 01:24:12;;;;;;;20.35;10.00;;;;;;;7.19;65.99;102724.16;6094497;23;123844;-77
2023/11/22 01:26:39;;;;;;;18.45;9.77;;;;;;;7.18;66.05;102732.09;6093729;23;123745;-77
2023/11/22 01:29:07;;;;;;;19.42;10.30;;;;;;;7.18;65.91;102743.50;6093872;23;113504;-77
2023/11/22 01:31:37;;;;;;;18.90;9.55;;;;;;;7.17;66.17;102736.44;6095546;23;114289;-77
2023/11/22 01:34:04;;;;;;;19.92;9.63;;;;;;;7.17;65.69;102747.00;6093367;23;123279;-77
2023/11/22 01:36:49;;;;;;;18.90;9.63;;;;;;;7.16;65.80;102755.78;6093702;23;123263;-77
2023/11/22 01:39:17;;;;;;;18.92;10.25;;;;;;;7.17;66.24;102757.53;6093220;23;114893;-77
2023/11/22 01:41:52;;;;;;;19.02;10.25;;;;;;;7.16;65.77;102770.72;6093549;23;115256;-77
2023/11/22 01:44:19;;;;;;;19.85;10.30;;;;;;;7.15;66.38;102759.28;6092159;23;123232;-77
2023/11/22 01:46:49;;;;;;;20.30;10.20;;;;;;;7.14;65.78;102762.81;6094113;23;124037;-77
2023/11/22 01:49:17;;;;;;;22.33;10.18;;;;;;;7.15;66.06;102769.84;6096155;23;114894;-77
2023/11/22 01:51:46;;;;;;;20.98;10.23;;;;;;;7.16;66.06;102771.59;6093760;23;113039;-77
2023/11/22 01:54:14;;;;;;;22.15;10.57;;;;;;;7.15;66.28;102782.13;6094355;23;124167;-77
2023/11/22 01:56:43;;;;;;;23.20;9.90;;;;;;;7.15;65.83;102784.78;6093303;23;123364;-77
2023/11/22 01:59:10;;;;;;;19.50;10.10;;;;;;;7.15;66.03;102780.38;6093714;23;113536;-77
2023/11/22 02:01:42;;;;;;;19.13;9.75;;;;;;;7.16;66.11;102782.16;6094704;23;113199;-77
2023/11/22 02:04:12;;;;;;;19.40;9.57;;;;;;;7.16;65.93;102783.91;6095002;23;123291;-77
2023/11/22 02:06:40;;;;;;;20.65;10.23;;;;;;;7.16;66.35;102782.16;6071238;23;123425;-77
2023/11/22 02:09:13;;;;;;;19.67;10.57;;;;;;;7.15;66.07;102780.38;6097337;23;113920;-77
2023/11/22 02:11:45;;;;;;;18.77;9.95;;;;;;;7.13;66.15;102774.22;6096311;23;115115;-77
2023/11/22 02:14:12;;;;;;;17.63;9.98;;;;;;;7.12;66.06;102780.41;6094161;23;123691;-77
2023/11/22 02:16:40;;;;;;;21.05;9.82;;;;;;;7.12;66.11;102767.22;6095750;23;123178;-77
2023/11/22 02:19:15;;;;;;;19.50;10.27;;;;;;;7.12;66.22;102769.84;6096491;23;113823;-77
2023/11/22 02:21:43;;;;;;;21.85;9.80;;;;;;;7.12;66.03;102766.31;6071461;23;113763;-77
2023/11/22 02:24:12;;;;;;;17.55;9.80;;;;;;;7.12;66.34;102764.59;6091716;23;123437;-77
2023/11/22 02:26:46;;;;;;;22.45;9.68;;;;;;;7.11;66.07;102768.09;6069712;23;123547;-77
2023/11/22 02:29:24;;;;;;;19.60;10.35;;;;;;;7.10;66.11;102771.63;6093554;23;114553;-77
2023/11/22 02:31:52;;;;;;;21.15;10.07;;;;;;;7.08;66.42;102773.34;6093443;23;115508;-77
2023/11/22 02:34:20;;;;;;;16.80;9.52;;;;;;;7.08;66.05;102773.34;6093937;23;123734;-77
2023/11/22 02:36:48;;;;;;;17.92;9.88;;;;;;;7.08;66.36;102778.59;6095915;23;124322;-77
2023/11/22 02:39:43;;;;;;;19.60;9.35;;;;;;;7.07;65.83;102776.88;6096395;23;113968;-77
2023/11/22 02:42:10;;;;;;;17.17;9.50;;;;;;;7.06;65.81;102780.38;6093127;23;112511;-77
2023/11/22 02:44:40;;;;;;;16.42;9.15;;;;;;;7.05;65.56;102789.16;6094424;23;124894;-77
2023/11/22 02:47:07;;;;;;;22.30;10.13;;;;;;;7.01;65.48;102787.41;6094340;23;123721;-78
2023/11/22 02:49:34;;;;;;;19.17;9.75;;;;;;;7.00;65.92;102780.38;6096888;23;113830;-77
2023/11/22 02:52:11;;;;;;;17.85;9.65;;;;;;;6.96;65.70;102783.88;6095441;23;114055;-77
2023/11/22 02:54:42;;;;;;;20.45;9.45;;;;;;;6.94;65.48;102785.63;6095849;23;124047;-77
2023/11/22 02:57:10;;;;;;;17.92;9.50;;;;;;;6.90;65.68;102779.47;6096059;23;123909;-77
2023/11/22 02:59:42;;;;;;;17.35;9.63;;;;;;;6.87;65.22;102782.09;6096523;23;115572;-77
2023/11/22 03:02:09;;;;;;;16.52;8.90;;;;;;;6.83;65.52;102781.22;6094632;23;114032;-77
2023/11/22 03:04:38;;;;;;;16.85;9.68;;;;;;;6.79;65.27;102782.09;6092217;23;123137;-76
2023/11/22 03:07:06;;;;;;;16.80;8.65;;;;;;;6.76;65.68;102776.84;6068444;23;125615;-77
2023/11/22 03:09:33;;;;;;;17.55;9.00;;;;;;;6.73;65.43;102778.59;6093852;23;113392;-77
2023/11/22 03:12:02;;;;;;;16.95;9.20;;;;;;;6.71;65.56;102773.31;6094764;23;113768;-77
2023/11/22 03:14:29;;;;;;;21.05;9.10;;;;;;;6.67;65.56;102782.06;6093208;23;124019;-77
2023/11/22 03:16:59;;;;;;;18.23;8.93;;;;;;;6.64;65.30;102779.44;6093298;23;124351;-77
2023/11/22 03:19:26;;;;;;;19.00;9.65;;;;;;;6.63;65.45;102780.31;6094325;23;115535;-77
2023/11/22 03:21:56;;;;;;;16.92;9.20;;;;;;;6.59;65.53;102783.78;6094546;23;116233;-77
2023/11/22 03:24:23;;;;;;;18.45;9.45;;;;;;;6.56;65.25;102778.53;6092613;23;123221;-77
2023/11/22 03:26:50;;;;;;;18.63;9.65;;;;;;;6.53;65.09;102779.38;6096346;23;123783;-77
2023/11/22 03:29:18;;;;;;;18.35;8.93;;;;;;;6.50;65.63;102783.75;6091698;23;113623;-77
2023/11/22 03:31:46;;;;;;;17.73;8.88;;;;;;;6.48;65.58;102782.88;6091341;23;113799;-76
2023/11/22 03:34:18;;;;;;;18.67;8.95;;;;;;;6.45;65.65;102790.78;6091940;23;123260;-76
2023/11/22 03:36:46;;;;;;;19.98;9.43;;;;;;;6.43;65.17;102794.28;6093842;23;123253;-77
2023/11/22 03:39:16;;;;;;;17.38;7.95;;;;;;;6.42;65.58;102797.78;6095500;23;114567;-77
2023/11/22 03:41:48;;;;;;;17.17;8.45;;;;;;;6.39;65.28;102797.78;6092659;23;113200;-77
2023/11/22 03:44:16;;;;;;;17.15;9.43;;;;;;;6.38;65.69;102801.25;6094094;23;123889;-76
2023/11/22 03:47:17;;;;;;;19.85;9.35;;;;;;;6.36;65.39;102816.16;6094316;23;123799;-77
2023/11/22 03:49:46;;;;;;;17.25;9.10;;;;;;;6.34;65.70;102830.22;6095383;23;114755;-77
2023/11/22 03:52:14;;;;;;;16.15;8.60;;;;;;;6.32;65.46;102831.97;6094141;23;114360;-77
2023/11/22 03:54:46;;;;;;;18.02;9.68;;;;;;;6.29;65.38;102843.38;6094380;23;124101;-77
2023/11/22 03:57:13;;;;;;;16.73;8.65;;;;;;;6.30;65.67;102865.28;6092549;23;124019;-77
2023/11/22 03:59:43;;;;;;;19.45;9.75;;;;;;;6.27;65.78;102858.22;6094483;23;114273;-77
2023/11/22 04:02:10;;;;;;;18.08;9.95;;;;;;;6.27;65.62;102865.25;6095304;23;114952;-77
2023/11/22 04:04:39;;;;;;;19.02;9.35;;;;;;;6.25;65.35;102867.88;6092182;23;122988;-77
2023/11/22 04:07:20;;;;;;;16.27;9.40;;;;;;;6.23;65.77;102874.88;6095023;23;124296;-77
2023/11/22 04:09:47;;;;;;;18.17;8.93;;;;;;;6.21;65.42;102884.50;6095305;23;115657;-77
2023/11/22 04:12:14;;;;;;;18.52;9.30;;;;;;;6.19;65.52;102892.38;6095954;23;114693;-78
2023/11/22 04:14:43;;;;;;;20.08;9.07;;;;;;;6.17;65.32;102890.63;6094874;23;124109;-78
2023/11/22 04:17:11;;;;;;;18.50;8.60;;;;;;;6.16;65.36;102891.50;6096600;23;123598;-77
2023/11/22 04:19:46;;;;;;;19.58;8.98;;;;;;;6.13;65.58;102895.00;6096010;23;114549;-77
2023/11/22 04:22:13;;;;;;;21.38;9.73;;;;;;;6.13;65.44;102894.13;6095512;23;113918;-77
2023/11/22 04:24:46;;;;;;;20.85;9.60;;;;;;;6.13;65.37;102899.38;6095238;23;123746;-77
2023/11/22 04:27:14;;;;;;;18.23;8.75;;;;;;;6.13;65.35;102894.13;6094439;23;123982;-77
2023/11/22 04:29:41;;;;;;;19.08;9.20;;;;;;;6.11;65.68;102890.59;6094463;23;114050;-77
2023/11/22 04:32:09;;;;;;;19.67;8.98;;;;;;;6.09;65.81;102897.59;6096091;23;114523;-78
2023/11/22 04:34:37;;;;;;;20.25;9.30;;;;;;;6.08;65.83;102896.72;6094193;23;124838;-77
2023/11/22 04:37:05;;;;;;;19.77;8.88;;;;;;;6.09;65.82;102897.59;6093005;23;122874;-77
2023/11/22 04:39:34;;;;;;;17.95;9.50;;;;;;;6.07;65.52;102899.34;6096612;23;115306;-78
2023/11/22 04:42:01;;;;;;;18.52;8.82;;;;;;;6.04;65.73;102898.44;6094716;23;114205;-78
2023/11/22 04:44:28;;;;;;;17.38;9.20;;;;;;;6.04;65.72;102895.78;6096003;23;124102;-77
2023/11/22 04:47:05;;;;;;;17.40;9.18;;;;;;;6.02;65.49;102891.41;6095722;23;124108;-77
2023/11/22 04:49:32;;;;;;;16.98;8.98;;;;;;;6.00;65.59;102888.75;6070226;23;113246;-77
2023/11/22 04:52:02;;;;;;;19.40;9.55;;;;;;;5.98;65.39;102879.97;6096066;23;113873;-78
2023/11/22 04:54:29;;;;;;;18.80;8.95;;;;;;;5.95;65.43;102874.72;6095072;23;124049;-77
2023/11/22 04:56:57;;;;;;;20.55;9.45;;;;;;;5.94;65.37;102883.44;6097337;23;123677;-78
2023/11/22 04:59:34;;;;;;;19.90;9.45;;;;;;;5.93;65.67;102886.91;6095330;23;115721;-78
2023/11/22 05:02:01;;;;;;;19.67;9.15;;;;;;;5.92;65.48;102890.44;6096044;23;115430;-77
2023/11/22 05:04:29;;;;;;;18.75;9.70;;;;;;;5.88;65.34;102896.53;6095494;23;124436;-77
2023/11/22 05:06:57;;;;;;;20.35;8.82;;;;;;;5.84;65.41;102898.28;6096056;23;124003;-77
2023/11/22 05:09:54;;;;;;;21.52;9.18;;;;;;;5.82;65.37;102904.38;6095911;23;114191;-78
2023/11/22 05:12:21;;;;;;;20.10;9.05;;;;;;;5.78;65.21;102913.09;6095450;23;114528;-78
2023/11/22 05:14:49;;;;;;;17.67;8.88;;;;;;;5.74;65.62;102913.94;6095700;23;124238;-78
2023/11/22 05:17:17;;;;;;;19.75;8.90;;;;;;;5.72;65.63;102913.06;6097688;23;124315;-77
2023/11/22 05:19:44;;;;;;;15.77;8.32;;;;;;;5.71;65.58;102921.78;6096035;23;114159;-78
2023/11/22 05:22:11;;;;;;;18.25;8.65;;;;;;;5.68;65.46;102913.91;6095715;23;114086;-77
2023/11/22 05:24:41;;;;;;;18.60;8.90;;;;;;;5.64;65.49;102921.75;6094918;23;124223;-77
2023/11/22 05:27:09;;;;;;;18.23;8.40;;;;;;;5.62;65.60;102912.97;6096271;23;124291;-78
2023/11/22 05:29:36;;;;;;;18.27;8.50;;;;;;;5.60;65.69;102912.09;6096626;23;114924;-78
2023/11/22 05:32:14;;;;;;;17.25;8.13;;;;;;;5.59;65.38;102912.06;6096102;23;114417;-78
2023/11/22 05:34:41;;;;;;;17.33;7.93;;;;;;;5.56;65.24;102904.16;6097206;23;124428;-78
2023/11/22 05:37:09;;;;;;;17.08;8.40;;;;;;;5.54;65.58;102903.25;6097171;23;124406;-77
2023/11/22 05:39:36;;;;;;;22.38;9.07;;;;;;;5.51;65.41;102898.84;6094527;23;113774;-77
2023/11/22 05:42:06;;;;;;;20.63;9.40;;;;;;;5.49;65.43;102895.34;6094136;23;114213;-78
2023/11/22 05:44:34;;;;;;;22.17;10.18;;;;;;;5.50;65.34;102897.13;6095317;23;124737;-77
2023/11/22 05:47:10;;;;;;;23.73;9.90;;;;;;;5.51;65.69;102901.47;6094397;23;122841;-77
2023/11/22 05:49:37;;;;;;;23.80;9.88;;;;;;;5.55;66.15;102900.63;6094022;23;114345;-77
2023/11/22 05:52:16;;;;;;;28.00;11.23;;;;;;;5.56;66.14;102902.41;6096102;23;115257;-77
2023/11/22 05:54:43;;;;;;;27.55;11.30;;;;;;;5.60;66.11;102919.97;6095990;23;124028;-77
2023/11/22 05:57:12;;;;;;;27.45;11.15;;;;;;;5.63;66.32;102920.00;6094928;23;123295;-77
2023/11/22 05:59:39;;;;;;;42.88;11.73;;;;;;;5.68;66.32;102930.56;6096062;23;114238;-77
2023/11/22 06:02:08;;;;;;;25.60;11.57;;;;;;;5.71;66.13;102937.56;6095970;23;114047;-77
2023/11/22 06:04:36;;;;;;;34.17;11.63;;;;;;;5.74;66.45;102927.09;6095357;23;124379;-77
2023/11/22 06:07:07;;;;;;;30.73;11.73;;;;;;;5.78;66.31;102923.63;6096912;23;123003;-76
2023/11/22 06:09:36;;;;;;;32.45;11.88;;;;;;;5.83;66.54;102927.19;6097812;23;114427;-76
2023/11/22 06:12:05;;;;;;;76.90;11.68;;;;;;;5.85;66.03;102936.81;6095544;23;114277;-76
2023/11/22 06:14:32;;;;;;;92.85;12.52;;;;;;;5.88;66.04;102951.78;6092963;23;124215;-76
2023/11/22 06:16:59;;;;;;;33.17;9.48;;;;;;;5.89;66.11;102958.78;6094553;23;124088;-76
2023/11/22 06:19:26;;;;;;;40.53;9.57;;;;;;;5.91;66.17;102962.28;6095539;23;114409;-76
2023/11/22 06:21:53;;;;;;;101.05;11.30;;;;;;;5.95;66.09;102966.78;6094451;23;113342;-76
2023/11/22 06:24:22;;;;;;;94.47;10.32;;;;;;;5.95;66.52;102952.69;6094675;23;124243;-76
2023/11/22 06:26:50;;;;;;;34.58;9.55;;;;;;;5.95;66.11;102947.44;6096016;23;124646;-76
2023/11/22 06:29:17;;;;;;;55.00;11.00;;;;;;;5.93;66.18;102944.78;6092490;23;114223;-76
2023/11/22 06:31:50;;;;;;;128.35;11.95;;;;;;;5.96;66.35;102936.97;6092362;23;113766;-76
2023/11/22 06:34:19;;;;;;;31.05;10.13;;;;;;;6.00;66.34;102945.75;6093635;23;124226;-76
2023/11/22 06:36:47;;;;;;;37.22;9.27;;;;;;;6.02;66.17;102952.78;6094499;23;123875;-75
2023/11/22 06:39:14;;;;;;;45.42;10.02;;;;;;;6.06;66.45;102958.94;6092931;23;115639;-76
2023/11/22 06:41:47;;;;;;;135.52;14.50;;;;;;;6.07;66.37;102962.47;6090773;23;115057;-75
2023/11/22 06:44:15;;;;;;;23.20;8.85;;;;;;;6.09;66.41;102966.00;6093620;23;124488;-76
2023/11/22 06:46:43;;;;;;;99.63;10.88;;;;;;;6.11;66.24;102969.53;6092571;23;123868;-75
2023/11/22 06:49:10;;;;;;;33.72;9.55;;;;;;;6.09;66.34;102976.53;6094184;23;114318;-75
2023/11/22 06:51:37;;;;;;;31.50;9.63;;;;;;;6.10;66.00;102986.16;6091387;23;114083;-75
2023/11/22 06:54:06;;;;;;;18.13;8.27;;;;;;;6.09;66.01;102987.06;6092991;23;124302;-76
2023/11/22 06:56:33;;;;;;;19.85;6.90;;;;;;;6.11;66.04;102990.56;6092178;23;123390;-75
2023/11/22 06:59:03;;;;;;;19.58;8.40;;;;;;;6.13;66.39;102994.09;6093015;23;114661;-75
2023/11/22 07:01:30;;;;;;;21.00;8.23;;;;;;;6.16;66.27;102994.09;6091011;23;113951;-75
2023/11/22 07:03:57;;;;;;;31.38;8.02;;;;;;;6.18;66.23;102987.13;6091333;23;123998;-75
2023/11/22 07:06:25;;;;;;;24.65;6.60;;;;;;;6.18;66.30;102979.22;6092620;23;124776;-75
2023/11/22 07:08:55;;;;;;;29.95;7.78;;;;;;;6.17;66.00;102974.81;6094716;23;114645;-75
2023/11/22 07:11:23;;;;;;;27.08;6.78;;;;;;;6.17;65.93;102964.31;6091895;23;114541;-75
2023/11/22 07:13:51;;;;;;;19.38;6.25;;;;;;;6.18;66.24;102960.81;6091305;23;123123;-75
2023/11/22 07:16:20;;;;;;;17.77;6.03;;;;;;;6.18;66.07;102971.34;6091282;23;123801;-75
2023/11/22 07:18:50;;;;;;;12.95;5.20;;;;;;;6.17;66.13;102980.09;6091720;23;113178;-74
2023/11/22 07:21:17;;;;;;;15.57;5.85;;;;;;;6.18;66.40;102976.59;6093422;23;113124;-73
2023/11/22 07:23:46;;;;;;;29.52;6.45;;;;;;;6.18;66.36;102971.34;6090340;23;123757;-75
2023/11/22 07:26:15;;;;;;;58.25;6.88;;;;;;;6.18;66.29;102971.34;6092941;23;124502;-74
2023/11/22 07:29:08;;;;;;;27.02;5.80;;;;;;;6.18;66.06;102966.06;6092353;23;115362;-74
2023/11/22 07:31:39;;;;;;;41.03;6.70;;;;;;;6.17;65.75;102951.16;6092985;23;114795;-77
2023/11/22 07:34:06;;;;;;;25.80;5.70;;;;;;;6.13;66.00;102949.38;6093939;23;124791;-77
2023/11/22 07:36:37;;;;;;;15.32;5.65;;;;;;;6.10;66.16;102951.97;6094979;23;124242;-77
2023/11/22 07:39:05;;;;;;;30.45;6.18;;;;;;;6.12;66.42;102960.75;6095427;23;114296;-77
2023/11/22 07:41:34;;;;;;;30.35;6.57;;;;;;;6.11;66.27;102970.41;6093074;23;114094;-78
2023/11/22 07:44:03;;;;;;;21.90;6.10;;;;;;;6.11;66.14;102970.41;6090841;23;123622;-78
2023/11/22 07:46:31;;;;;;;22.15;6.05;;;;;;;6.11;66.07;102965.13;6094408;23;123721;-78
2023/11/22 07:48:59;;;;;;;32.47;6.53;;;;;;;6.16;66.21;102975.69;6089415;23;113319;-78
2023/11/22 07:51:28;;;;;;;28.00;7.25;;;;;;;6.19;66.21;102980.97;6092627;23;114859;-78
2023/11/22 07:53:55;;;;;;;38.63;7.35;;;;;;;6.24;66.56;102982.78;6092183;23;125699;-78
2023/11/22 07:56:33;;;;;;;22.23;6.88;;;;;;;6.30;66.49;102987.19;6096015;23;124319;-78
2023/11/22 07:59:01;;;;;;;20.95;6.78;;;;;;;6.32;66.25;102985.47;6096165;23;114263;-78
2023/11/22 08:01:31;;;;;;;44.10;7.38;;;;;;;6.36;66.44;102997.75;6095456;23;114160;-78
2023/11/22 08:03:58;;;;;;;38.30;7.38;;;;;;;6.40;66.45;102998.66;6096819;23;124870;-78
2023/11/22 08:06:26;;;;;;;22.98;7.60;;;;;;;6.43;66.31;103010.09;6096867;23;124363;-78
2023/11/22 08:09:08;;;;;;;26.60;7.25;;;;;;;6.47;66.40;103012.78;6097336;23;114686;-78
2023/11/22 08:11:36;;;;;;;46.08;7.80;;;;;;;6.53;66.37;103015.44;6096385;23;114374;-78
2023/11/22 08:14:05;;;;;;;33.00;7.53;;;;;;;6.58;66.06;103003.19;6094754;23;124639;-79
2023/11/22 08:16:38;;;;;;;21.33;7.38;;;;;;;6.61;65.99;103013.72;6095506;23;124702;-79
2023/11/22 08:19:13;;;;;;;24.08;7.93;;;;;;;6.67;66.48;103015.50;6094549;23;115665;-78
2023/11/22 08:21:40;;;;;;;32.90;7.65;;;;;;;6.71;66.46;103010.28;6093054;23;114084;-79
2023/11/22 08:24:08;;;;;;;26.10;7.32;;;;;;;6.74;66.08;103010.31;6095824;23;124353;-79
2023/11/22 08:26:36;;;;;;;26.52;8.02;;;;;;;6.77;66.39;103020.84;6095812;23;124098;-78
2023/11/22 08:29:04;;;;;;;32.45;8.25;;;;;;;6.81;65.91;103025.28;6095656;23;114514;-79
2023/11/22 08:31:32;;;;;;;19.58;7.47;;;;;;;6.85;66.22;103027.94;6092074;23;112291;-79
2023/11/22 08:34:06;;;;;;;18.35;8.00;;;;;;;6.88;66.60;103027.97;6091496;23;124353;-78
2023/11/22 08:36:34;;;;;;;18.90;7.55;;;;;;;6.92;66.23;103019.19;6096374;23;124143;-79
2023/11/22 08:39:03;;;;;;;20.75;7.82;;;;;;;6.93;66.50;103019.22;6096122;23;114504;-79
2023/11/22 08:41:38;;;;;;;25.38;8.50;;;;;;;6.98;66.58;103019.22;6095285;23;114543;-78
2023/11/22 08:44:06;;;;;;;23.42;8.52;;;;;;;7.01;66.63;103040.31;6092380;23;124127;-78
2023/11/22 08:46:33;;;;;;;28.73;8.80;;;;;;;7.03;66.57;103033.31;6091793;23;122759;-78
2023/11/22 08:49:02;;;;;;;34.03;9.23;;;;;;;7.06;66.66;103028.03;6093598;23;114776;-77
2023/11/22 08:51:30;;;;;;;21.17;7.97;;;;;;;7.10;66.23;103029.84;6094354;23;114307;-77
2023/11/22 08:54:17;;;;;;;28.50;9.13;;;;;;;7.14;66.35;103036.88;6092657;23;124661;-77
2023/11/22 08:56:46;;;;;;;20.45;8.43;;;;;;;7.20;66.51;103047.44;6095607;23;124114;-77
2023/11/22 08:59:16;;;;;;;34.00;9.02;;;;;;;7.25;66.69;103046.56;6094890;23;113790;-77
2023/11/22 09:01:45;;;;;;;25.80;9.52;;;;;;;7.30;66.67;103042.22;6096014;23;113939;-77
2023/11/22 09:04:15;;;;;;;23.20;8.88;;;;;;;7.33;66.66;103031.69;6092501;23;122966;-77
2023/11/22 09:06:42;;;;;;;26.92;9.25;;;;;;;7.36;66.31;103032.56;6094322;23;123823;-77
2023/11/22 09:09:19;;;;;;;26.27;9.65;;;;;;;7.39;66.67;103042.25;6094844;23;115733;-77
2023/11/22 09:11:47;;;;;;;26.45;9.82;;;;;;;7.44;66.76;103048.44;6094591;23;115149;-77
2023/11/22 09:14:28;;;;;;;27.08;10.15;;;;;;;7.49;66.44;103053.69;6094640;23;123489;-77
2023/11/22 09:16:56;;;;;;;26.05;9.43;;;;;;;7.55;66.69;103049.34;6095664;23;124312;-78
2023/11/22 09:19:29;;;;;;;26.42;10.07;;;;;;;7.59;66.20;103050.19;6095909;23;114114;-77
2023/11/22 09:21:56;;;;;;;27.38;10.35;;;;;;;7.64;66.38;103044.97;6093291;23;113093;-77
2023/11/22 09:24:23;;;;;;;29.92;10.82;;;;;;;7.67;66.44;103048.50;6093796;23;123920;-77
2023/11/22 09:26:52;;;;;;;25.63;10.95;;;;;;;7.72;66.09;103056.41;6094832;23;123865;-78
2023/11/22 09:29:19;;;;;;;30.48;11.18;;;;;;;7.73;66.46;103048.50;6068425;23;113634;-77
2023/11/22 09:32:06;;;;;;;33.50;11.02;;;;;;;7.73;66.45;103048.50;6093324;23;112945;-77
2023/11/22 09:34:35;;;;;;;30.77;10.63;;;;;;;7.78;66.63;103051.16;6093781;23;123892;-77
2023/11/22 09:37:02;;;;;;;26.98;10.85;;;;;;;7.84;66.54;103053.81;6093867;23;122352;-78
2023/11/22 09:39:30;;;;;;;25.88;10.35;;;;;;;7.87;66.34;103056.44;6095461;23;114188;-78
2023/11/22 09:42:05;;;;;;;30.60;11.70;;;;;;;7.86;66.34;103065.25;6094834;23;113909;-78
2023/11/22 09:44:32;;;;;;;28.92;10.90;;;;;;;7.87;66.17;103059.06;6091829;23;123754;-77
2023/11/22 09:46:59;;;;;;;25.48;10.10;;;;;;;7.91;66.45;103058.22;6092811;23;123207;-77
2023/11/22 09:49:31;;;;;;;30.15;11.23;;;;;;;7.96;66.23;103061.72;6094487;23;114316;-77
2023/11/22 09:52:03;;;;;;;28.23;11.50;;;;;;;8.02;66.30;103062.63;6090050;23;113623;-77
2023/11/22 09:54:33;;;;;;;30.83;11.30;;;;;;;8.05;65.96;103055.59;6095161;23;123847;-78
2023/11/22 09:57:10;;;;;;;29.70;11.43;;;;;;;8.08;66.33;103038.88;6094808;23;124233;-78
2023/11/22 09:59:40;;;;;;;32.72;11.73;;;;;;;8.10;66.24;103034.47;6092451;23;114218;-77
2023/11/22 10:02:26;;;;;;;32.78;11.52;;;;;;;8.15;66.20;103040.63;6094140;23;115445;-77
2023/11/22 10:04:55;;;;;;;30.55;11.05;;;;;;;8.18;66.29;103045.94;6093589;23;124088;-77
2023/11/22 10:07:24;;;;;;;27.63;11.15;;;;;;;8.21;66.50;103051.19;6093570;23;124155;-77
2023/11/22 10:09:51;;;;;;;27.58;11.35;;;;;;;8.27;66.36;103050.31;6095350;23;113834;-77
2023/11/22 10:12:20;;;;;;;28.98;10.70;;;;;;;8.32;66.54;103054.72;6095328;23;114149;-78
2023/11/22 10:15:15;;;;;;;28.77;10.75;;;;;;;8.35;66.47;103049.44;6094861;23;124116;-77
2023/11/22 10:18:01;;;;;;;35.08;12.05;;;;;;;8.43;66.24;103040.69;6095552;23;123683;-78
2023/11/22 10:20:49;;;;;;;32.72;11.98;;;;;;;8.48;66.49;103036.28;6095656;23;114262;-77
2023/11/22 10:23:19;;;;;;;33.50;12.40;;;;;;;8.53;66.19;103037.13;6094405;23;114423;-77
2023/11/22 10:26:15;;;;;;;35.63;13.07;;;;;;;8.58;66.32;103045.94;6093627;23;124247;-77
2023/11/22 10:28:43;;;;;;;35.40;12.85;;;;;;;8.67;66.28;103045.94;6092860;23;123967;-77
2023/11/22 10:31:10;;;;;;;34.25;12.63;;;;;;;8.72;66.60;103044.16;6092846;23;114337;-77
2023/11/22 10:33:44;;;;;;;35.55;12.73;;;;;;;8.78;66.14;103038.00;6085169;23;114561;-77
2023/11/22 10:36:14;;;;;;;37.05;13.90;;;;;;;8.80;66.19;103041.50;6087471;23;125375;-77
2023/11/22 10:38:47;;;;;;;35.03;13.70;;;;;;;8.84;66.18;103042.38;6090236;23;123991;-77
2023/11/22 10:41:14;;;;;;;38.10;13.52;;;;;;;8.86;65.89;103030.91;6091053;23;114091;-78
2023/11/22 10:43:44;;;;;;;42.50;15.52;;;;;;;8.91;66.12;103054.69;6090432;23;113809;-78
2023/11/22 10:46:13;;;;;;;41.88;15.02;;;;;;;8.93;66.10;103047.66;6094915;23;124562;-79
2023/11/22 10:48:47;;;;;;;40.83;15.95;;;;;;;8.96;65.91;103042.34;6094078;23;124048;-78
2023/11/22 10:51:14;;;;;;;41.35;16.08;;;;;;;9.00;65.75;103033.50;6094748;23;116018;-78
2023/11/22 10:53:52;;;;;;;38.60;14.98;;;;;;;9.01;65.75;103019.41;6094764;23;115768;-78
2023/11/22 10:56:22;;;;;;;46.17;16.00;;;;;;;9.03;65.71;103012.38;6095485;23;123924;-78
2023/11/22 10:58:51;;;;;;;40.00;15.48;;;;;;;9.06;65.62;103017.66;6093874;23;123863;-78
2023/11/22 11:01:21;;;;;;;39.60;15.25;;;;;;;9.10;65.89;102998.25;6092425;23;114068;-78
2023/11/22 11:04:05;;;;;;;40.53;15.25;;;;;;;9.13;65.71;102982.34;6092076;23;113243;-77
2023/11/22 11:06:35;;;;;;;38.65;14.65;;;;;;;9.16;65.79;102971.78;6094006;23;124216;-78
2023/11/22 11:09:09;;;;;;;36.58;14.23;;;;;;;9.18;65.79;102968.25;6093856;23;124547;-78
2023/11/22 11:11:37;;;;;;;38.20;14.45;;;;;;;9.20;65.86;102967.34;6094514;23;114801;-78
2023/11/22 11:14:11;;;;;;;38.03;13.52;;;;;;;9.22;65.46;102975.28;6094878;23;114348;-78
2023/11/22 11:16:47;;;;;;;33.25;13.23;;;;;;;9.25;65.64;102972.59;6094263;23;123641;-78
2023/11/22 11:19:32;;;;;;;37.22;14.40;;;;;;;9.27;65.49;102984.06;6093637;23;124575;-78
2023/11/22 11:22:01;;;;;;;37.05;13.48;;;;;;;9.31;65.82;102969.94;6094668;23;114144;-78
2023/11/22 11:24:28;;;;;;;35.42;13.45;;;;;;;9.35;65.54;102982.25;6093629;23;114325;-78
2023/11/22 11:27:03;;;;;;;35.75;13.65;;;;;;;9.38;65.76;102986.66;6093643;23;123857;-78